sensor_id;sensor_type;location;lat;lon;timestamp;temperature;humidity
2387;DHT22;49473;50.772;8.768;2022-09-09T00:00:49;16.50;99.90
2387;DHT22;49473;50.772;8.768;2022-09-09T00:03:19;16.60;99.90
2387;DHT22;49473;50.772;8.768;2022-09-09T00:05:55;16.50;99.90
2387;DHT22;49473;50.772;8.768;2022-09-09T00:08:33;16.40;99.90
2387;DHT22;49473;50.772;8.768;2022-09-09T00:11:05;16.30;99.90
2387;DHT22;49473;50.772;8.768;2022-09-09T00:13:38;16.30;99.90
2387;DHT22;49473;50.772;8.768;2022-09-09T00:16:11;16.20;99.90
2387;DHT22;49473;50.772;8.768;2022-09-09T00:18:51;16.20;99.90
2387;DHT22;49473;50.772;8.768;2022-09-09T00:21:22;16.20;99.90
2387;DHT22;49473;50.772;8.768;2022-09-09T00:23:54;16.20;99.90
2387;DHT22;49473;50.772;8.768;2022-09-09T00:26:27;16.20;99.90
2387;DHT22;49473;50.772;8.768;2022-09-09T00:29:05;16.20;99.90
2387;DHT22;49473;50.772;8.768;2022-09-09T00:31:36;16.10;99.90
2387;DHT22;49473;50.772;8.768;2022-09-09T00:34:11;16.00;99.90
2387;DHT22;49473;50.772;8.768;2022-09-09T00:36:40;15.90;99.90
2387;DHT22;49473;50.772;8.768;2022-09-09T00:39:13;15.90;99.90
2387;DHT22;49473;50.772;8.768;2022-09-09T00:41:59;15.80;99.90
2387;DHT22;49473;50.772;8.768;2022-09-09T00:44:33;15.70;99.90
2387;DHT22;49473;50.772;8.768;2022-09-09T00:47:17;15.70;99.90
2387;DHT22;49473;50.772;8.768;2022-09-09T00:49:59;15.60;99.90
2387;DHT22;49473;50.772;8.768;2022-09-09T00:52:35;15.70;99.90
2387;DHT22;49473;50.772;8.768;2022-09-09T00:55:10;15.70;99.90
2387;DHT22;49473;50.772;8.768;2022-09-09T00:57:38;15.70;99.90
2387;DHT22;49473;50.772;8.768;2022-09-09T01:00:20;15.70;99.90
2387;DHT22;49473;50.772;8.768;2022-09-09T01:02:55;15.70;99.90
2387;DHT22;49473;50.772;8.768;2022-09-09T01:05:29;15.70;99.90
2387;DHT22;49473;50.772;8.768;2022-09-09T01:07:58;15.80;99.90
2387;DHT22;49473;50.772;8.768;2022-09-09T01:10:36;15.90;99.90
2387;DHT22;49473;50.772;8.768;2022-09-09T01:13:13;15.90;99.90
2387;DHT22;49473;50.772;8.768;2022-09-09T01:15:44;15.90;99.90
2387;DHT22;49473;50.772;8.768;2022-09-09T01:18:15;15.80;99.90
2387;DHT22;49473;50.772;8.768;2022-09-09T01:20:49;15.80;99.90
2387;DHT22;49473;50.772;8.768;2022-09-09T01:23:35;15.80;99.90
2387;DHT22;49473;50.772;8.768;2022-09-09T01:26:19;15.90;99.90
2387;DHT22;49473;50.772;8.768;2022-09-09T01:28:50;15.90;99.90
2387;DHT22;49473;50.772;8.768;2022-09-09T01:31:20;15.90;99.90
2387;DHT22;49473;50.772;8.768;2022-09-09T01:33:48;15.80;99.90
2387;DHT22;49473;50.772;8.768;2022-09-09T01:36:20;15.70;99.90
2387;DHT22;49473;50.772;8.768;2022-09-09T01:38:48;15.70;99.90
2387;DHT22;49473;50.772;8.768;2022-09-09T01:41:16;15.70;99.90
2387;DHT22;49473;50.772;8.768;2022-09-09T01:43:43;15.70;99.90
2387;DHT22;49473;50.772;8.768;2022-09-09T01:46:11;15.60;99.90
2387;DHT22;49473;50.772;8.768;2022-09-09T01:48:39;15.60;99.90
2387;DHT22;49473;50.772;8.768;2022-09-09T01:51:08;15.60;99.90
2387;DHT22;49473;50.772;8.768;2022-09-09T01:53:36;15.60;99.90
2387;DHT22;49473;50.772;8.768;2022-09-09T01:56:11;15.70;99.90
2387;DHT22;49473;50.772;8.768;2022-09-09T01:58:51;15.60;99.90
2387;DHT22;49473;50.772;8.768;2022-09-09T02:01:28;15.50;99.90
2387;DHT22;49473;50.772;8.768;2022-09-09T02:03:57;15.50;99.90
2387;DHT22;49473;50.772;8.768;2022-09-09T02:06:28;15.40;99.90
2387;DHT22;49473;50.772;8.768;2022-09-09T02:08:59;15.40;99.90
2387;DHT22;49473;50.772;8.768;2022-09-09T02:11:28;15.50;99.90
2387;DHT22;49473;50.772;8.768;2022-09-09T02:14:00;15.50;99.90
2387;DHT22;49473;50.772;8.768;2022-09-09T02:16:31;15.50;99.90
2387;DHT22;49473;50.772;8.768;2022-09-09T02:19:02;15.40;99.90
2387;DHT22;49473;50.772;8.768;2022-09-09T02:21:31;15.40;99.90
2387;DHT22;49473;50.772;8.768;2022-09-09T02:24:03;15.40;99.90
2387;DHT22;49473;50.772;8.768;2022-09-09T02:26:31;15.40;99.90
2387;DHT22;49473;50.772;8.768;2022-09-09T02:29:05;15.40;99.90
2387;DHT22;49473;50.772;8.768;2022-09-09T02:31:33;15.40;99.90
2387;DHT22;49473;50.772;8.768;2022-09-09T02:34:03;15.40;99.90
2387;DHT22;49473;50.772;8.768;2022-09-09T02:36:32;15.50;99.90
2387;DHT22;49473;50.772;8.768;2022-09-09T02:39:01;15.50;99.90
2387;DHT22;49473;50.772;8.768;2022-09-09T02:41:31;15.40;99.90
2387;DHT22;49473;50.772;8.768;2022-09-09T02:43:58;15.40;99.90
2387;DHT22;49473;50.772;8.768;2022-09-09T02:46:40;15.40;99.90
2387;DHT22;49473;50.772;8.768;2022-09-09T02:49:14;15.40;99.90
2387;DHT22;49473;50.772;8.768;2022-09-09T02:51:49;15.50;99.90
2387;DHT22;49473;50.772;8.768;2022-09-09T02:54:24;15.50;99.90
2387;DHT22;49473;50.772;8.768;2022-09-09T02:56:53;15.60;99.90
2387;DHT22;49473;50.772;8.768;2022-09-09T02:59:22;15.70;99.90
2387;DHT22;49473;50.772;8.768;2022-09-09T03:01:52;15.80;99.90
2387;DHT22;49473;50.772;8.768;2022-09-09T03:04:19;15.70;99.90
2387;DHT22;49473;50.772;8.768;2022-09-09T03:06:46;15.60;99.90
2387;DHT22;49473;50.772;8.768;2022-09-09T03:09:13;15.60;99.90
2387;DHT22;49473;50.772;8.768;2022-09-09T03:11:40;15.60;99.90
2387;DHT22;49473;50.772;8.768;2022-09-09T03:14:07;15.70;99.90
2387;DHT22;49473;50.772;8.768;2022-09-09T03:16:36;15.70;99.90
2387;DHT22;49473;50.772;8.768;2022-09-09T03:19:04;15.80;99.90
2387;DHT22;49473;50.772;8.768;2022-09-09T03:21:31;15.80;99.90
2387;DHT22;49473;50.772;8.768;2022-09-09T03:23:59;15.80;99.90
2387;DHT22;49473;50.772;8.768;2022-09-09T03:26:28;15.80;99.90
2387;DHT22;49473;50.772;8.768;2022-09-09T03:28:55;15.80;99.90
2387;DHT22;49473;50.772;8.768;2022-09-09T03:31:22;15.90;99.90
2387;DHT22;49473;50.772;8.768;2022-09-09T03:33:49;15.90;99.90
2387;DHT22;49473;50.772;8.768;2022-09-09T03:36:17;15.90;99.90
2387;DHT22;49473;50.772;8.768;2022-09-09T03:38:44;15.80;99.90
2387;DHT22;49473;50.772;8.768;2022-09-09T03:41:11;15.80;99.90
2387;DHT22;49473;50.772;8.768;2022-09-09T03:43:38;15.80;99.90
2387;DHT22;49473;50.772;8.768;2022-09-09T03:46:05;15.80;99.90
2387;DHT22;49473;50.772;8.768;2022-09-09T03:48:32;15.80;99.90
2387;DHT22;49473;50.772;8.768;2022-09-09T03:50:59;15.70;99.90
2387;DHT22;49473;50.772;8.768;2022-09-09T03:53:28;15.70;99.90
2387;DHT22;49473;50.772;8.768;2022-09-09T03:55:56;15.70;99.90
2387;DHT22;49473;50.772;8.768;2022-09-09T03:58:26;15.70;99.90
2387;DHT22;49473;50.772;8.768;2022-09-09T04:00:54;15.70;99.90
2387;DHT22;49473;50.772;8.768;2022-09-09T04:03:21;15.70;99.90
2387;DHT22;49473;50.772;8.768;2022-09-09T04:05:50;15.70;99.90
2387;DHT22;49473;50.772;8.768;2022-09-09T04:08:17;15.70;99.90
2387;DHT22;49473;50.772;8.768;2022-09-09T04:10:46;15.80;99.90
2387;DHT22;49473;50.772;8.768;2022-09-09T04:13:13;15.80;99.90
2387;DHT22;49473;50.772;8.768;2022-09-09T04:15:41;15.80;99.90
2387;DHT22;49473;50.772;8.768;2022-09-09T04:18:09;15.80;99.90
2387;DHT22;49473;50.772;8.768;2022-09-09T04:20:35;15.80;99.90
2387;DHT22;49473;50.772;8.768;2022-09-09T04:23:02;15.70;99.90
2387;DHT22;49473;50.772;8.768;2022-09-09T04:25:29;15.70;99.90
2387;DHT22;49473;50.772;8.768;2022-09-09T04:27:58;15.60;99.90
2387;DHT22;49473;50.772;8.768;2022-09-09T04:30:25;15.60;99.90
2387;DHT22;49473;50.772;8.768;2022-09-09T04:32:52;15.60;99.90
2387;DHT22;49473;50.772;8.768;2022-09-09T04:35:19;15.60;99.90
2387;DHT22;49473;50.772;8.768;2022-09-09T04:37:46;15.60;99.90
2387;DHT22;49473;50.772;8.768;2022-09-09T04:40:14;15.60;99.90
2387;DHT22;49473;50.772;8.768;2022-09-09T04:42:41;15.60;99.90
2387;DHT22;49473;50.772;8.768;2022-09-09T04:45:10;15.50;99.90
2387;DHT22;49473;50.772;8.768;2022-09-09T04:47:39;15.50;99.90
2387;DHT22;49473;50.772;8.768;2022-09-09T04:50:07;15.50;99.90
2387;DHT22;49473;50.772;8.768;2022-09-09T04:52:34;15.40;99.90
2387;DHT22;49473;50.772;8.768;2022-09-09T04:55:01;15.40;99.90
2387;DHT22;49473;50.772;8.768;2022-09-09T04:57:28;15.30;99.90
2387;DHT22;49473;50.772;8.768;2022-09-09T04:59:57;15.30;99.90
2387;DHT22;49473;50.772;8.768;2022-09-09T05:02:26;15.30;99.90
2387;DHT22;49473;50.772;8.768;2022-09-09T05:04:53;15.20;99.90
2387;DHT22;49473;50.772;8.768;2022-09-09T05:07:20;15.20;99.90
2387;DHT22;49473;50.772;8.768;2022-09-09T05:09:47;15.20;99.90
2387;DHT22;49473;50.772;8.768;2022-09-09T05:12:15;15.30;99.90
2387;DHT22;49473;50.772;8.768;2022-09-09T05:14:42;15.30;99.90
2387;DHT22;49473;50.772;8.768;2022-09-09T05:17:10;15.30;99.90
2387;DHT22;49473;50.772;8.768;2022-09-09T05:19:38;15.30;99.90
2387;DHT22;49473;50.772;8.768;2022-09-09T05:22:05;15.40;99.90
2387;DHT22;49473;50.772;8.768;2022-09-09T05:24:33;15.40;99.90
2387;DHT22;49473;50.772;8.768;2022-09-09T05:26:59;15.30;99.90
2387;DHT22;49473;50.772;8.768;2022-09-09T05:29:27;15.20;99.90
2387;DHT22;49473;50.772;8.768;2022-09-09T05:31:54;15.10;99.90
2387;DHT22;49473;50.772;8.768;2022-09-09T05:34:21;15.30;99.90
2387;DHT22;49473;50.772;8.768;2022-09-09T05:36:50;15.50;99.90
2387;DHT22;49473;50.772;8.768;2022-09-09T05:39:17;15.80;99.90
2387;DHT22;49473;50.772;8.768;2022-09-09T05:41:44;16.20;99.90
2387;DHT22;49473;50.772;8.768;2022-09-09T05:44:11;16.60;99.90
2387;DHT22;49473;50.772;8.768;2022-09-09T05:46:39;16.80;99.90
2387;DHT22;49473;50.772;8.768;2022-09-09T05:49:06;16.80;99.90
2387;DHT22;49473;50.772;8.768;2022-09-09T05:51:33;16.90;99.90
2387;DHT22;49473;50.772;8.768;2022-09-09T05:54:01;16.80;99.90
2387;DHT22;49473;50.772;8.768;2022-09-09T05:56:29;16.80;99.90
2387;DHT22;49473;50.772;8.768;2022-09-09T05:58:58;16.70;99.90
2387;DHT22;49473;50.772;8.768;2022-09-09T06:01:27;16.60;99.90
2387;DHT22;49473;50.772;8.768;2022-09-09T06:03:55;16.70;99.90
2387;DHT22;49473;50.772;8.768;2022-09-09T06:06:24;16.80;99.90
2387;DHT22;49473;50.772;8.768;2022-09-09T06:08:53;16.80;99.90
2387;DHT22;49473;50.772;8.768;2022-09-09T06:11:23;16.80;99.90
2387;DHT22;49473;50.772;8.768;2022-09-09T06:13:50;17.00;99.90
2387;DHT22;49473;50.772;8.768;2022-09-09T06:16:21;17.20;99.90
2387;DHT22;49473;50.772;8.768;2022-09-09T06:18:49;17.40;99.90
2387;DHT22;49473;50.772;8.768;2022-09-09T06:21:17;17.50;99.90
2387;DHT22;49473;50.772;8.768;2022-09-09T06:23:45;17.70;99.90
2387;DHT22;49473;50.772;8.768;2022-09-09T06:26:14;17.90;99.90
2387;DHT22;49473;50.772;8.768;2022-09-09T06:28:44;17.80;99.90
2387;DHT22;49473;50.772;8.768;2022-09-09T06:31:12;17.70;99.90
2387;DHT22;49473;50.772;8.768;2022-09-09T06:33:41;17.80;99.90
2387;DHT22;49473;50.772;8.768;2022-09-09T06:36:11;17.60;99.90
2387;DHT22;49473;50.772;8.768;2022-09-09T06:38:38;17.50;99.90
2387;DHT22;49473;50.772;8.768;2022-09-09T06:41:05;17.40;99.90
2387;DHT22;49473;50.772;8.768;2022-09-09T06:43:32;17.40;99.90
2387;DHT22;49473;50.772;8.768;2022-09-09T06:46:01;17.30;99.90
2387;DHT22;49473;50.772;8.768;2022-09-09T06:48:28;17.10;99.90
2387;DHT22;49473;50.772;8.768;2022-09-09T06:51:03;16.90;99.90
2387;DHT22;49473;50.772;8.768;2022-09-09T06:53:31;16.90;99.90
2387;DHT22;49473;50.772;8.768;2022-09-09T06:55:59;17.00;99.90
2387;DHT22;49473;50.772;8.768;2022-09-09T06:58:26;17.10;99.90
2387;DHT22;49473;50.772;8.768;2022-09-09T07:01:03;16.90;99.90
2387;DHT22;49473;50.772;8.768;2022-09-09T07:03:30;16.90;99.90
2387;DHT22;49473;50.772;8.768;2022-09-09T07:05:57;16.90;99.90
2387;DHT22;49473;50.772;8.768;2022-09-09T07:08:25;17.00;99.90
2387;DHT22;49473;50.772;8.768;2022-09-09T07:10:52;17.10;99.90
2387;DHT22;49473;50.772;8.768;2022-09-09T07:13:19;17.40;99.90
2387;DHT22;49473;50.772;8.768;2022-09-09T07:15:47;17.60;99.90
2387;DHT22;49473;50.772;8.768;2022-09-09T07:18:15;17.70;99.90
2387;DHT22;49473;50.772;8.768;2022-09-09T07:20:42;17.80;99.90
2387;DHT22;49473;50.772;8.768;2022-09-09T07:23:09;18.00;99.90
2387;DHT22;49473;50.772;8.768;2022-09-09T07:25:36;18.10;99.90
2387;DHT22;49473;50.772;8.768;2022-09-09T07:28:02;18.30;99.90
2387;DHT22;49473;50.772;8.768;2022-09-09T07:30:29;18.40;99.90
2387;DHT22;49473;50.772;8.768;2022-09-09T07:32:56;18.30;99.90
2387;DHT22;49473;50.772;8.768;2022-09-09T07:35:25;18.30;99.90
2387;DHT22;49473;50.772;8.768;2022-09-09T07:37:52;18.50;99.90
2387;DHT22;49473;50.772;8.768;2022-09-09T07:40:19;18.70;99.90
2387;DHT22;49473;50.772;8.768;2022-09-09T07:42:47;18.90;99.90
2387;DHT22;49473;50.772;8.768;2022-09-09T07:45:14;19.20;99.90
2387;DHT22;49473;50.772;8.768;2022-09-09T07:47:41;19.30;99.90
2387;DHT22;49473;50.772;8.768;2022-09-09T07:50:08;19.60;99.90
2387;DHT22;49473;50.772;8.768;2022-09-09T07:52:36;19.80;99.90
2387;DHT22;49473;50.772;8.768;2022-09-09T07:55:03;20.00;99.90
2387;DHT22;49473;50.772;8.768;2022-09-09T07:57:31;20.00;99.90
2387;DHT22;49473;50.772;8.768;2022-09-09T07:59:58;20.20;99.90
2387;DHT22;49473;50.772;8.768;2022-09-09T08:02:25;20.20;99.90
2387;DHT22;49473;50.772;8.768;2022-09-09T08:04:54;20.50;99.90
2387;DHT22;49473;50.772;8.768;2022-09-09T08:07:21;20.60;99.90
2387;DHT22;49473;50.772;8.768;2022-09-09T08:09:50;20.60;99.90
2387;DHT22;49473;50.772;8.768;2022-09-09T08:12:17;20.60;99.90
2387;DHT22;49473;50.772;8.768;2022-09-09T08:14:43;20.60;99.90
2387;DHT22;49473;50.772;8.768;2022-09-09T08:17:10;20.50;99.90
2387;DHT22;49473;50.772;8.768;2022-09-09T08:19:37;20.50;99.90
2387;DHT22;49473;50.772;8.768;2022-09-09T08:22:04;20.40;99.90
2387;DHT22;49473;50.772;8.768;2022-09-09T08:24:30;20.50;99.90
2387;DHT22;49473;50.772;8.768;2022-09-09T08:26:58;20.50;99.90
2387;DHT22;49473;50.772;8.768;2022-09-09T08:29:25;20.50;99.90
2387;DHT22;49473;50.772;8.768;2022-09-09T08:31:56;20.60;99.90
2387;DHT22;49473;50.772;8.768;2022-09-09T08:34:23;20.80;99.90
2387;DHT22;49473;50.772;8.768;2022-09-09T08:36:52;21.20;99.90
2387;DHT22;49473;50.772;8.768;2022-09-09T08:39:21;21.10;99.90
2387;DHT22;49473;50.772;8.768;2022-09-09T08:42:05;21.00;99.90
2387;DHT22;49473;50.772;8.768;2022-09-09T08:44:44;20.90;99.90
2387;DHT22;49473;50.772;8.768;2022-09-09T08:47:22;21.10;99.90
2387;DHT22;49473;50.772;8.768;2022-09-09T08:50:07;21.90;99.90
2387;DHT22;49473;50.772;8.768;2022-09-09T08:52:42;23.30;99.90
2387;DHT22;49473;50.772;8.768;2022-09-09T08:55:22;23.80;99.90
2387;DHT22;49473;50.772;8.768;2022-09-09T08:57:54;23.20;99.90
2387;DHT22;49473;50.772;8.768;2022-09-09T09:00:23;22.30;99.90
2387;DHT22;49473;50.772;8.768;2022-09-09T09:03:02;22.20;99.90
2387;DHT22;49473;50.772;8.768;2022-09-09T09:05:36;23.00;99.90
2387;DHT22;49473;50.772;8.768;2022-09-09T09:08:12;23.60;99.90
2387;DHT22;49473;50.772;8.768;2022-09-09T09:10:46;24.00;99.90
2387;DHT22;49473;50.772;8.768;2022-09-09T09:13:20;24.50;99.90
2387;DHT22;49473;50.772;8.768;2022-09-09T09:15:52;24.40;99.90
2387;DHT22;49473;50.772;8.768;2022-09-09T09:18:20;24.50;99.90
2387;DHT22;49473;50.772;8.768;2022-09-09T09:20:52;25.60;99.90
2387;DHT22;49473;50.772;8.768;2022-09-09T09:23:23;25.90;99.90
2387;DHT22;49473;50.772;8.768;2022-09-09T09:25:53;25.30;99.90
2387;DHT22;49473;50.772;8.768;2022-09-09T09:28:25;24.30;99.90
2387;DHT22;49473;50.772;8.768;2022-09-09T09:30:55;24.30;99.90
2387;DHT22;49473;50.772;8.768;2022-09-09T09:33:27;24.90;99.90
2387;DHT22;49473;50.772;8.768;2022-09-09T09:35:57;24.80;99.90
2387;DHT22;49473;50.772;8.768;2022-09-09T09:38:27;24.10;99.90
2387;DHT22;49473;50.772;8.768;2022-09-09T09:40:55;23.90;99.90
2387;DHT22;49473;50.772;8.768;2022-09-09T09:43:27;25.00;99.90
2387;DHT22;49473;50.772;8.768;2022-09-09T09:45:54;26.70;99.90
2387;DHT22;49473;50.772;8.768;2022-09-09T09:48:24;28.80;99.90
2387;DHT22;49473;50.772;8.768;2022-09-09T09:50:52;29.00;99.90
2387;DHT22;49473;50.772;8.768;2022-09-09T09:53:23;27.90;99.90
2387;DHT22;49473;50.772;8.768;2022-09-09T09:55:55;26.70;99.90
2387;DHT22;49473;50.772;8.768;2022-09-09T09:58:24;25.70;99.90
2387;DHT22;49473;50.772;8.768;2022-09-09T10:00:52;24.80;99.90
2387;DHT22;49473;50.772;8.768;2022-09-09T10:03:26;23.90;99.90
2387;DHT22;49473;50.772;8.768;2022-09-09T10:05:53;23.60;99.90
2387;DHT22;49473;50.772;8.768;2022-09-09T10:08:22;23.50;99.90
2387;DHT22;49473;50.772;8.768;2022-09-09T10:11:05;23.60;99.90
2387;DHT22;49473;50.772;8.768;2022-09-09T10:13:40;24.50;99.90
2387;DHT22;49473;50.772;8.768;2022-09-09T10:16:22;24.70;99.90
2387;DHT22;49473;50.772;8.768;2022-09-09T10:18:59;24.40;99.90
2387;DHT22;49473;50.772;8.768;2022-09-09T10:21:44;24.20;99.90
2387;DHT22;49473;50.772;8.768;2022-09-09T10:24:32;23.60;99.90
2387;DHT22;49473;50.772;8.768;2022-09-09T10:27:09;24.10;99.90
2387;DHT22;49473;50.772;8.768;2022-09-09T10:29:57;26.30;99.90
2387;DHT22;49473;50.772;8.768;2022-09-09T10:32:44;28.60;99.90
2387;DHT22;49473;50.772;8.768;2022-09-09T10:35:19;29.50;98.70
2387;DHT22;49473;50.772;8.768;2022-09-09T10:38:11;29.80;98.00
2387;DHT22;49473;50.772;8.768;2022-09-09T10:40:43;29.20;96.50
2387;DHT22;49473;50.772;8.768;2022-09-09T10:43:25;27.90;99.10
2387;DHT22;49473;50.772;8.768;2022-09-09T10:46:04;27.90;99.90
2387;DHT22;49473;50.772;8.768;2022-09-09T10:48:44;29.00;99.90
2387;DHT22;49473;50.772;8.768;2022-09-09T10:51:29;30.30;99.30
2387;DHT22;49473;50.772;8.768;2022-09-09T10:54:10;30.50;97.20
2387;DHT22;49473;50.772;8.768;2022-09-09T10:56:38;30.30;97.90
2387;DHT22;49473;50.772;8.768;2022-09-09T10:59:10;30.80;96.10
2387;DHT22;49473;50.772;8.768;2022-09-09T11:01:43;31.60;95.50
2387;DHT22;49473;50.772;8.768;2022-09-09T11:04:19;32.30;94.10
2387;DHT22;49473;50.772;8.768;2022-09-09T11:06:50;32.20;90.60
2387;DHT22;49473;50.772;8.768;2022-09-09T11:09:22;32.90;86.20
2387;DHT22;49473;50.772;8.768;2022-09-09T11:11:53;33.10;80.30
2387;DHT22;49473;50.772;8.768;2022-09-09T11:14:25;32.10;78.60
2387;DHT22;49473;50.772;8.768;2022-09-09T11:16:58;30.30;81.10
2387;DHT22;49473;50.772;8.768;2022-09-09T11:19:30;28.40;88.40
2387;DHT22;49473;50.772;8.768;2022-09-09T11:21:59;27.10;91.40
2387;DHT22;49473;50.772;8.768;2022-09-09T11:24:31;26.30;93.30
2387;DHT22;49473;50.772;8.768;2022-09-09T11:27:08;27.20;96.50
2387;DHT22;49473;50.772;8.768;2022-09-09T11:30:03;29.70;92.70
2387;DHT22;49473;50.772;8.768;2022-09-09T11:35:30;29.70;92.60
2387;DHT22;49473;50.772;8.768;2022-09-09T11:38:16;29.10;92.80
2387;DHT22;49473;50.772;8.768;2022-09-09T11:40:45;28.20;93.30
2387;DHT22;49473;50.772;8.768;2022-09-09T11:43:14;27.60;94.20
2387;DHT22;49473;50.772;8.768;2022-09-09T11:45:43;27.50;92.00
2387;DHT22;49473;50.772;8.768;2022-09-09T11:48:33;26.50;93.30
2387;DHT22;49473;50.772;8.768;2022-09-09T11:51:04;25.50;92.70
2387;DHT22;49473;50.772;8.768;2022-09-09T11:53:33;24.80;98.70
2387;DHT22;49473;50.772;8.768;2022-09-09T11:56:09;24.30;98.10
2387;DHT22;49473;50.772;8.768;2022-09-09T11:58:43;23.70;99.90
2387;DHT22;49473;50.772;8.768;2022-09-09T12:01:30;23.40;99.90
2387;DHT22;49473;50.772;8.768;2022-09-09T12:04:28;23.60;99.90
2387;DHT22;49473;50.772;8.768;2022-09-09T12:06:59;24.20;99.90
2387;DHT22;49473;50.772;8.768;2022-09-09T12:09:43;24.20;99.90
2387;DHT22;49473;50.772;8.768;2022-09-09T12:12:32;24.50;99.90
2387;DHT22;49473;50.772;8.768;2022-09-09T12:15:18;24.50;99.90
2387;DHT22;49473;50.772;8.768;2022-09-09T12:17:47;24.10;99.90
2387;DHT22;49473;50.772;8.768;2022-09-09T12:20:18;23.60;99.90
2387;DHT22;49473;50.772;8.768;2022-09-09T12:23:00;24.10;99.90
2387;DHT22;49473;50.772;8.768;2022-09-09T12:25:36;24.50;99.90
2387;DHT22;49473;50.772;8.768;2022-09-09T12:28:13;24.60;99.90
2387;DHT22;49473;50.772;8.768;2022-09-09T12:30:46;24.80;99.90
2387;DHT22;49473;50.772;8.768;2022-09-09T12:33:17;24.50;99.90
2387;DHT22;49473;50.772;8.768;2022-09-09T12:35:49;24.40;99.90
2387;DHT22;49473;50.772;8.768;2022-09-09T12:38:24;24.60;99.90
2387;DHT22;49473;50.772;8.768;2022-09-09T12:40:55;25.20;99.90
2387;DHT22;49473;50.772;8.768;2022-09-09T12:43:24;25.60;99.90
2387;DHT22;49473;50.772;8.768;2022-09-09T12:45:53;25.60;99.40
2387;DHT22;49473;50.772;8.768;2022-09-09T12:48:28;25.20;99.90
2387;DHT22;49473;50.772;8.768;2022-09-09T12:50:57;24.90;99.90
2387;DHT22;49473;50.772;8.768;2022-09-09T12:53:27;24.60;99.90
2387;DHT22;49473;50.772;8.768;2022-09-09T12:55:57;24.00;99.90
2387;DHT22;49473;50.772;8.768;2022-09-09T12:58:25;24.00;99.90
2387;DHT22;49473;50.772;8.768;2022-09-09T13:00:55;24.10;99.90
2387;DHT22;49473;50.772;8.768;2022-09-09T13:03:22;24.30;99.90
2387;DHT22;49473;50.772;8.768;2022-09-09T13:05:51;24.70;99.90
2387;DHT22;49473;50.772;8.768;2022-09-09T13:08:20;25.90;99.90
2387;DHT22;49473;50.772;8.768;2022-09-09T13:10:49;26.20;99.00
2387;DHT22;49473;50.772;8.768;2022-09-09T13:13:22;25.70;99.90
2387;DHT22;49473;50.772;8.768;2022-09-09T13:15:51;25.30;99.90
2387;DHT22;49473;50.772;8.768;2022-09-09T13:18:21;26.80;99.90
2387;DHT22;49473;50.772;8.768;2022-09-09T13:20:49;26.30;99.90
2387;DHT22;49473;50.772;8.768;2022-09-09T13:23:20;25.30;99.90
2387;DHT22;49473;50.772;8.768;2022-09-09T13:25:55;24.70;99.90
2387;DHT22;49473;50.772;8.768;2022-09-09T13:28:24;24.70;99.90
2387;DHT22;49473;50.772;8.768;2022-09-09T13:30:59;24.90;99.90
2387;DHT22;49473;50.772;8.768;2022-09-09T13:33:31;26.60;99.90
2387;DHT22;49473;50.772;8.768;2022-09-09T13:36:00;27.50;99.40
2387;DHT22;49473;50.772;8.768;2022-09-09T13:38:32;26.70;99.10
2387;DHT22;49473;50.772;8.768;2022-09-09T13:41:02;25.30;99.90
2387;DHT22;49473;50.772;8.768;2022-09-09T13:43:31;24.70;99.90
2387;DHT22;49473;50.772;8.768;2022-09-09T13:45:59;24.20;99.90
2387;DHT22;49473;50.772;8.768;2022-09-09T13:48:27;23.90;99.90
2387;DHT22;49473;50.772;8.768;2022-09-09T13:51:00;23.70;99.90
2387;DHT22;49473;50.772;8.768;2022-09-09T13:53:29;24.00;99.90
2387;DHT22;49473;50.772;8.768;2022-09-09T13:55:57;24.10;99.90
2387;DHT22;49473;50.772;8.768;2022-09-09T13:58:24;24.00;99.90
2387;DHT22;49473;50.772;8.768;2022-09-09T14:00:51;23.40;99.90
2387;DHT22;49473;50.772;8.768;2022-09-09T14:03:21;22.70;99.90
2387;DHT22;49473;50.772;8.768;2022-09-09T14:05:48;22.20;99.90
2387;DHT22;49473;50.772;8.768;2022-09-09T14:08:21;21.90;99.90
2387;DHT22;49473;50.772;8.768;2022-09-09T14:10:50;21.40;99.90
2387;DHT22;49473;50.772;8.768;2022-09-09T14:13:18;20.60;99.90
2387;DHT22;49473;50.772;8.768;2022-09-09T14:15:48;20.00;99.90
2387;DHT22;49473;50.772;8.768;2022-09-09T14:18:15;19.80;99.90
2387;DHT22;49473;50.772;8.768;2022-09-09T14:20:42;19.60;99.90
2387;DHT22;49473;50.772;8.768;2022-09-09T14:23:10;19.30;99.90
2387;DHT22;49473;50.772;8.768;2022-09-09T14:25:40;19.20;99.90
2387;DHT22;49473;50.772;8.768;2022-09-09T14:28:11;19.10;99.90
2387;DHT22;49473;50.772;8.768;2022-09-09T14:30:39;19.00;99.90
2387;DHT22;49473;50.772;8.768;2022-09-09T14:33:07;18.80;99.90
2387;DHT22;49473;50.772;8.768;2022-09-09T14:35:34;18.80;99.90
2387;DHT22;49473;50.772;8.768;2022-09-09T14:38:02;18.90;99.90
2387;DHT22;49473;50.772;8.768;2022-09-09T14:40:30;19.10;99.90
2387;DHT22;49473;50.772;8.768;2022-09-09T14:42:57;19.30;99.90
2387;DHT22;49473;50.772;8.768;2022-09-09T14:45:26;19.30;99.90
2387;DHT22;49473;50.772;8.768;2022-09-09T14:47:52;19.30;99.90
2387;DHT22;49473;50.772;8.768;2022-09-09T14:50:19;19.30;99.90
2387;DHT22;49473;50.772;8.768;2022-09-09T14:52:47;19.50;99.90
2387;DHT22;49473;50.772;8.768;2022-09-09T14:55:14;20.00;99.90
2387;DHT22;49473;50.772;8.768;2022-09-09T14:57:41;21.10;99.90
2387;DHT22;49473;50.772;8.768;2022-09-09T15:00:09;22.10;99.90
2387;DHT22;49473;50.772;8.768;2022-09-09T15:02:37;22.30;99.90
2387;DHT22;49473;50.772;8.768;2022-09-09T15:05:05;22.50;99.90
2387;DHT22;49473;50.772;8.768;2022-09-09T15:07:32;22.30;99.90
2387;DHT22;49473;50.772;8.768;2022-09-09T15:09:59;21.80;99.90
2387;DHT22;49473;50.772;8.768;2022-09-09T15:12:26;21.60;99.90
2387;DHT22;49473;50.772;8.768;2022-09-09T15:14:53;21.50;99.90
2387;DHT22;49473;50.772;8.768;2022-09-09T15:17:21;21.50;99.90
2387;DHT22;49473;50.772;8.768;2022-09-09T15:19:53;21.40;99.90
2387;DHT22;49473;50.772;8.768;2022-09-09T15:22:21;21.40;99.90
2387;DHT22;49473;50.772;8.768;2022-09-09T15:24:48;21.40;99.90
2387;DHT22;49473;50.772;8.768;2022-09-09T15:27:14;21.30;99.90
2387;DHT22;49473;50.772;8.768;2022-09-09T15:29:41;21.10;99.90
2387;DHT22;49473;50.772;8.768;2022-09-09T15:32:09;21.00;99.90
2387;DHT22;49473;50.772;8.768;2022-09-09T15:34:36;21.00;99.90
2387;DHT22;49473;50.772;8.768;2022-09-09T15:37:04;20.70;99.90
2387;DHT22;49473;50.772;8.768;2022-09-09T15:39:32;20.40;99.90
2387;DHT22;49473;50.772;8.768;2022-09-09T15:41:58;20.40;99.90
2387;DHT22;49473;50.772;8.768;2022-09-09T15:44:26;20.30;99.90
2387;DHT22;49473;50.772;8.768;2022-09-09T15:46:53;20.40;99.90
2387;DHT22;49473;50.772;8.768;2022-09-09T15:49:21;20.30;99.90
2387;DHT22;49473;50.772;8.768;2022-09-09T15:51:52;20.30;99.90
2387;DHT22;49473;50.772;8.768;2022-09-09T15:54:21;20.30;99.90
2387;DHT22;49473;50.772;8.768;2022-09-09T15:56:52;20.40;99.90
2387;DHT22;49473;50.772;8.768;2022-09-09T15:59:20;20.40;99.90
2387;DHT22;49473;50.772;8.768;2022-09-09T16:01:47;20.40;99.90
2387;DHT22;49473;50.772;8.768;2022-09-09T16:04:16;20.30;99.90
2387;DHT22;49473;50.772;8.768;2022-09-09T16:06:49;20.10;99.90
2387;DHT22;49473;50.772;8.768;2022-09-09T16:09:18;20.00;99.90